createdAt,value
2022-12-01T00:10:30.382Z,69.1
2022-12-01T00:26:13.070Z,72
2022-12-01T00:41:55.764Z,74
2022-12-01T00:57:38.224Z,75.19
2022-12-01T01:13:20.885Z,71.3
2022-12-01T01:29:03.469Z,72.3
2022-12-01T01:44:45.768Z,73.8
2022-12-01T02:00:28.284Z,75.1
2022-12-01T02:16:10.991Z,75.9
2022-12-01T02:31:53.861Z,74.1
2022-12-01T02:47:36.550Z,75.19
2022-12-01T03:03:19.189Z,80.69
2022-12-01T03:19:01.517Z,85.5
2022-12-01T03:34:44.038Z,84.6
2022-12-01T03:50:26.766Z,87.6
2022-12-01T04:06:09.677Z,83.1
2022-12-01T04:21:52.425Z,88.1
2022-12-01T04:37:35.494Z,80.69
2022-12-01T04:53:17.794Z,80.1
2022-12-01T05:09:00.879Z,75.19
2022-12-01T05:24:43.471Z,81.1
2022-12-01T05:40:25.645Z,80.5
2022-12-01T05:56:08.051Z,77.5
2022-12-01T06:11:50.769Z,79.19
2022-12-01T06:27:33.455Z,78.6
2022-12-01T06:43:15.709Z,78.3
2022-12-01T06:58:58.249Z,89.1
2022-12-01T07:14:41.218Z,85.1
2022-12-01T07:30:24.072Z,94.4
2022-12-01T07:46:06.785Z,111.8
2022-12-01T08:01:49.287Z,115.9
2022-12-01T08:17:31.521Z,112.4
2022-12-01T08:33:14.455Z,116.3
2022-12-01T08:48:57.120Z,113.8
2022-12-01T09:04:39.672Z,103.7
2022-12-01T09:20:22.506Z,104.2
2022-12-01T09:36:05.468Z,122.4
2022-12-01T09:51:48.295Z,100.4
2022-12-01T10:07:31.069Z,96.7
2022-12-01T10:23:14.138Z,87.7
2022-12-01T10:38:57.304Z,94.6
2022-12-01T10:54:40.293Z,83
2022-12-01T11:10:22.570Z,76
2022-12-01T11:26:05.084Z,67.5
2022-12-01T11:41:47.711Z,62.3
2022-12-01T11:57:30.350Z,62.2
2022-12-01T12:13:13.390Z,60.9
2022-12-01T12:28:56.325Z,59.2
2022-12-01T12:44:39.636Z,61.9
2022-12-01T13:00:22.527Z,62.3
2022-12-01T13:16:05.006Z,57.9
2022-12-01T13:31:48.155Z,54.6
2022-12-01T13:47:31.088Z,52.7
2022-12-01T14:03:14.207Z,54
2022-12-01T14:18:57.101Z,53.9
2022-12-01T14:34:40.183Z,50.7
2022-12-01T14:50:22.842Z,53.8
2022-12-01T15:06:05.871Z,50.1
2022-12-01T15:21:48.602Z,51.2
2022-12-01T15:37:31.313Z,56
2022-12-01T15:53:14.230Z,58.2
2022-12-01T16:08:56.609Z,60.8
2022-12-01T16:24:38.899Z,63.3
2022-12-01T16:40:21.940Z,73.3
2022-12-01T16:56:04.781Z,68.1
2022-12-01T17:11:47.883Z,64.8
2022-12-01T17:12:35.336Z,67.1
2022-12-01T17:28:18.077Z,65.4
2022-12-01T17:44:01.061Z,72
2022-12-01T17:59:43.797Z,66.4
2022-12-01T18:15:26.057Z,72.6
2022-12-01T18:31:09.065Z,78.8
2022-12-01T18:46:51.458Z,77.3
2022-12-01T19:02:34.677Z,76
2022-12-01T19:18:17.280Z,76.19
2022-12-01T19:33:59.866Z,73.1
2022-12-01T19:49:42.524Z,70.1
2022-12-01T20:05:24.954Z,71.9
2022-12-01T20:21:07.560Z,68.1
2022-12-01T20:36:50.180Z,66.6
2022-12-01T20:52:32.935Z,59
2022-12-01T21:08:16.088Z,62.5
2022-12-01T21:23:58.878Z,60.7
2022-12-01T21:39:41.458Z,59.1
2022-12-01T21:55:24.110Z,58.6
2022-12-01T22:11:06.774Z,59
2022-12-01T22:26:49.449Z,57.2
2022-12-01T22:42:32.343Z,53.4
2022-12-01T22:58:15.314Z,54
2022-12-01T23:13:57.567Z,57.1
2022-12-01T23:29:40.341Z,55.1
2022-12-01T23:45:23.372Z,52.4
